createdAt,value
2018-07-26T00:04:17.804Z,4.80
2018-07-26T00:09:11.153Z,4.80
2018-07-26T00:14:04.421Z,4.70
2018-07-26T00:18:58.695Z,6.30
2018-07-26T00:23:51.800Z,5.00
2018-07-26T00:28:45.258Z,5.80
2018-07-26T00:33:39.524Z,5.30
2018-07-26T00:38:32.484Z,5.30
2018-07-26T00:43:27.952Z,5.70
2018-07-26T00:48:20.589Z,5.50
2018-07-26T00:53:17.001Z,6.80
2018-07-26T00:58:09.429Z,6.70
2018-07-26T01:03:02.933Z,5.90
2018-07-26T01:07:59.244Z,6.40
2018-07-26T01:12:54.798Z,6.20
2018-07-26T01:17:50.476Z,6.10
2018-07-26T01:22:43.444Z,5.80
2018-07-26T01:27:39.588Z,7.30
2018-07-26T01:32:35.141Z,7.50
2018-07-26T01:37:30.565Z,7.30
2018-07-26T01:42:28.185Z,7.70
2018-07-26T01:47:24.878Z,7.70
2018-07-26T01:52:20.232Z,8.00
2018-07-26T01:57:15.785Z,8.10
2018-07-26T02:02:11.144Z,7.70
2018-07-26T02:07:06.532Z,7.30
2018-07-26T02:12:03.213Z,7.00
2018-07-26T02:16:58.830Z,8.00
2018-07-26T02:21:54.282Z,8.60
2018-07-26T02:26:49.849Z,7.60
2018-07-26T02:31:45.481Z,8.10
2018-07-26T02:36:40.165Z,8.30
2018-07-26T02:41:36.010Z,9.90
2018-07-26T02:46:31.660Z,8.90
2018-07-26T02:51:29.060Z,9.70
2018-07-26T02:56:23.125Z,7.70
2018-07-26T03:01:21.023Z,9.70
2018-07-26T03:06:17.231Z,10.20
2018-07-26T03:11:15.184Z,9.90
2018-07-26T03:16:10.464Z,8.80
2018-07-26T03:21:06.246Z,9.70
2018-07-26T03:26:01.786Z,10.50
2018-07-26T03:30:59.300Z,10.40
2018-07-26T03:35:56.655Z,11.40
2018-07-26T03:41:00.026Z,10.90
2018-07-26T03:46:19.629Z,11.90
2018-07-26T03:51:22.984Z,12.30
2018-07-26T03:56:23.772Z,10.40
2018-07-26T04:01:22.076Z,11.90
2018-07-26T04:06:25.235Z,11.70
2018-07-26T04:11:26.525Z,12.10
2018-07-26T04:16:27.560Z,11.90
2018-07-26T04:21:24.099Z,10.90
2018-07-26T04:26:21.126Z,10.80
2018-07-26T04:31:18.343Z,13.50
2018-07-26T04:36:16.527Z,11.00
2018-07-26T04:41:11.757Z,10.80
2018-07-26T04:46:07.455Z,12.10
2018-07-26T04:51:03.001Z,12.60
2018-07-26T04:55:58.632Z,13.20
2018-07-26T05:00:54.211Z,12.70
2018-07-26T05:05:50.033Z,15.20
2018-07-26T05:10:47.125Z,13.70
2018-07-26T05:15:42.432Z,14.90
2018-07-26T05:20:38.507Z,14.60
2018-07-26T05:25:34.088Z,13.70
2018-07-26T05:30:29.746Z,14.30
2018-07-26T05:35:25.516Z,14.80
2018-07-26T05:40:22.340Z,16.00
2018-07-26T05:45:16.876Z,12.90
2018-07-26T05:50:12.501Z,13.30
2018-07-26T05:55:08.258Z,11.80
2018-07-26T06:00:01.896Z,13.10
2018-07-26T06:04:57.985Z,12.20
2018-07-26T06:09:53.748Z,11.60
2018-07-26T06:14:49.599Z,10.50
2018-07-26T06:19:45.856Z,12.90
2018-07-26T06:24:41.348Z,11.40
2018-07-26T06:29:38.045Z,12.80
2018-07-26T06:34:30.468Z,10.80
2018-07-26T06:39:23.985Z,12.80
2018-07-26T06:44:17.485Z,8.60
2018-07-26T06:49:12.028Z,8.70
2018-07-26T06:54:05.120Z,9.90
2018-07-26T06:58:58.744Z,6.90
2018-07-26T07:03:52.367Z,6.10
2018-07-26T07:08:46.540Z,6.70
2018-07-26T07:13:39.875Z,6.30
2018-07-26T07:18:33.512Z,5.20
2018-07-26T07:23:27.061Z,5.10
2018-07-26T07:28:23.738Z,5.00
2018-07-26T07:33:17.071Z,5.10
2018-07-26T07:38:12.019Z,4.00
2018-07-26T07:43:05.744Z,4.10
2018-07-26T07:47:59.411Z,10.70
2018-07-26T07:52:54.364Z,5.50
2018-07-26T07:57:49.385Z,4.30
2018-07-26T08:02:43.547Z,4.00
2018-07-26T08:07:36.755Z,4.40
2018-07-26T08:12:31.176Z,6.40
2018-07-26T08:17:24.400Z,4.60
2018-07-26T08:22:18.025Z,4.30
2018-07-26T08:27:12.425Z,5.10
2018-07-26T08:32:06.704Z,4.70
2018-07-26T08:36:59.984Z,3.80
2018-07-26T08:41:53.852Z,4.90
2018-07-26T08:46:49.009Z,4.00
2018-07-26T08:51:44.166Z,4.30
2018-07-26T08:56:38.021Z,5.30
2018-07-26T09:01:33.204Z,3.90
2018-07-26T09:06:28.056Z,3.70
2018-07-26T09:11:23.975Z,3.80
2018-07-26T09:16:17.776Z,3.80
2018-07-26T09:21:11.765Z,3.80
2018-07-26T09:26:05.937Z,3.70
2018-07-26T09:31:00.284Z,2.80
2018-07-26T09:35:54.317Z,3.20
2018-07-26T09:40:48.137Z,4.20
2018-07-26T09:45:43.352Z,4.40
2018-07-26T09:50:38.774Z,3.00
2018-07-26T09:55:33.692Z,4.70
2018-07-26T10:00:27.581Z,3.60
2018-07-26T10:05:21.915Z,3.30
2018-07-26T10:10:17.797Z,4.00
2018-07-26T10:15:14.223Z,3.60
2018-07-26T10:20:09.154Z,8.30
2018-07-26T10:25:04.292Z,4.00
2018-07-26T10:29:59.423Z,8.50
2018-07-26T10:34:54.749Z,3.70
2018-07-26T10:39:50.028Z,2.40
2018-07-26T10:44:42.900Z,18.60
2018-07-26T10:49:38.506Z,2.80
2018-07-26T10:54:34.856Z,2.80
2018-07-26T10:59:30.075Z,2.60
2018-07-26T11:04:25.826Z,2.60
2018-07-26T11:09:21.413Z,2.70
2018-07-26T11:14:17.632Z,2.40
2018-07-26T11:19:13.081Z,3.20
2018-07-26T11:24:10.140Z,2.80
2018-07-26T11:29:05.545Z,3.00
2018-07-26T11:34:13.067Z,3.10
2018-07-26T11:39:15.893Z,3.20
2018-07-26T11:44:15.245Z,3.00
2018-07-26T11:49:34.173Z,3.30
2018-07-26T11:54:31.821Z,3.40
2018-07-26T11:59:36.612Z,2.90
2018-07-26T12:04:47.005Z,2.90
2018-07-26T12:09:46.607Z,2.70
2018-07-26T12:14:42.857Z,2.50
2018-07-26T12:19:38.652Z,2.80
2018-07-26T12:24:34.976Z,2.40
2018-07-26T12:29:33.623Z,3.90
2018-07-26T12:35:36.226Z,3.50
2018-07-26T12:45:38.948Z,3.40
2018-07-26T12:50:34.634Z,3.80
2018-07-26T12:55:30.904Z,4.70
2018-07-26T13:00:25.305Z,19.00
2018-07-26T13:10:20.881Z,3.20
2018-07-26T13:15:18.072Z,4.70
2018-07-26T13:20:19.506Z,3.00
2018-07-26T13:25:18.178Z,3.20
2018-07-26T13:30:13.809Z,3.90
2018-07-26T13:35:10.196Z,3.10
2018-07-26T13:40:07.085Z,3.90
2018-07-26T13:50:18.491Z,3.10
2018-07-26T13:55:12.264Z,3.10
2018-07-26T14:00:14.870Z,3.50
2018-07-26T14:05:09.951Z,2.90
2018-07-26T14:10:05.342Z,3.10
2018-07-26T14:15:00.727Z,2.70
2018-07-26T14:19:58.430Z,3.00
2018-07-26T14:24:55.057Z,3.50
2018-07-26T14:29:53.071Z,3.10
2018-07-26T14:34:47.905Z,3.40
2018-07-26T14:39:43.265Z,3.20
2018-07-26T14:44:38.931Z,3.20
2018-07-26T14:49:39.584Z,3.10
2018-07-26T14:54:34.995Z,2.50
2018-07-26T14:59:30.183Z,2.70
2018-07-26T15:04:24.925Z,3.00
2018-07-26T15:09:19.945Z,3.00
2018-07-26T15:14:18.794Z,3.20
2018-07-26T15:19:14.628Z,2.90
2018-07-26T15:24:15.338Z,2.60
2018-07-26T15:29:12.857Z,2.40
2018-07-26T15:34:08.148Z,3.20
2018-07-26T15:39:02.714Z,2.10
2018-07-26T15:43:57.921Z,5.20
2018-07-26T15:48:52.678Z,2.40
2018-07-26T15:53:48.028Z,3.60
2018-07-26T15:58:44.521Z,2.30
2018-07-26T16:03:41.042Z,2.80
2018-07-26T16:08:36.727Z,2.50
2018-07-26T16:13:36.809Z,2.60
2018-07-26T16:18:32.049Z,2.40
2018-07-26T16:23:26.868Z,1.70
2018-07-26T16:28:22.069Z,2.40
2018-07-26T16:33:17.063Z,2.90
2018-07-26T16:38:13.149Z,3.80
2018-07-26T16:43:07.543Z,2.90
2018-07-26T16:48:02.516Z,1.70
2018-07-26T16:52:58.596Z,2.40
2018-07-26T16:57:54.860Z,2.40
2018-07-26T17:02:49.663Z,3.50
2018-07-26T17:07:42.625Z,3.60
2018-07-26T17:12:37.819Z,1.60
2018-07-26T17:17:34.191Z,2.50
2018-07-26T17:22:29.054Z,2.00
2018-07-26T17:27:24.075Z,1.90
2018-07-26T17:32:19.065Z,3.50
2018-07-26T17:37:14.107Z,2.80
2018-07-26T17:42:09.857Z,3.00
2018-07-26T17:47:09.744Z,2.50
2018-07-26T17:52:05.536Z,4.50
2018-07-26T17:57:00.288Z,2.30
2018-07-26T18:01:55.418Z,2.00
2018-07-26T18:06:50.404Z,3.30
2018-07-26T18:11:43.096Z,4.00
2018-07-26T18:16:38.673Z,2.80
2018-07-26T18:21:33.673Z,3.70
2018-07-26T18:26:28.686Z,4.40
2018-07-26T18:31:25.103Z,4.10
2018-07-26T18:36:17.754Z,4.20
2018-07-26T18:41:10.810Z,3.30
2018-07-26T18:46:06.281Z,2.90
2018-07-26T18:51:00.316Z,3.50
2018-07-26T18:55:53.429Z,3.00
2018-07-26T19:17:09.440Z,3.10
2018-07-26T19:22:05.723Z,4.00
2018-07-26T19:26:58.752Z,2.80
2018-07-26T19:31:52.332Z,3.60
2018-07-26T19:36:47.492Z,3.60
2018-07-26T19:41:43.256Z,6.70
2018-07-26T19:46:39.835Z,5.40
2018-07-26T19:51:33.832Z,8.90
2018-07-26T19:56:27.936Z,7.90
2018-07-26T20:01:25.285Z,7.20
2018-07-26T20:06:19.049Z,11.70
2018-07-26T20:11:13.524Z,3.10
2018-07-26T20:16:06.847Z,3.20
2018-07-26T20:21:00.267Z,2.80
2018-07-26T20:25:53.572Z,3.00
2018-07-26T20:30:47.148Z,3.50
2018-07-26T20:35:40.601Z,3.10
2018-07-26T20:40:34.251Z,2.90
2018-07-26T20:45:27.640Z,2.70
2018-07-26T20:50:21.139Z,3.80
2018-07-26T20:55:16.721Z,3.10
2018-07-26T21:00:10.809Z,3.70
2018-07-26T21:05:03.888Z,2.80
2018-07-26T21:09:57.305Z,3.20
2018-07-26T21:14:50.695Z,2.40
2018-07-26T21:19:46.172Z,3.20
2018-07-26T21:24:40.164Z,2.40
2018-07-26T21:29:34.312Z,4.30
2018-07-26T21:34:28.706Z,2.40
2018-07-26T21:39:22.009Z,2.70
2018-07-26T21:44:15.400Z,3.20
2018-07-26T21:49:08.715Z,2.70
2018-07-26T21:54:02.082Z,2.90
2018-07-26T21:58:55.312Z,2.40
2018-07-26T22:03:49.752Z,2.90
2018-07-26T22:08:42.967Z,2.30
2018-07-26T22:13:36.616Z,2.50
2018-07-26T22:18:32.673Z,2.50
2018-07-26T22:23:25.549Z,2.20
2018-07-26T22:28:19.018Z,1.90
2018-07-26T22:33:12.403Z,3.10
2018-07-26T22:38:06.816Z,2.50
2018-07-26T22:43:00.055Z,3.20
2018-07-26T22:47:54.592Z,3.50
2018-07-26T22:52:48.760Z,5.60
2018-07-26T22:57:42.009Z,6.00
2018-07-26T23:02:35.483Z,2.20
2018-07-26T23:07:29.772Z,2.90
2018-07-26T23:12:23.028Z,2.50
2018-07-26T23:17:18.248Z,3.50
2018-07-26T23:22:12.246Z,3.10
2018-07-26T23:27:06.442Z,3.10
2018-07-26T23:31:59.579Z,3.00
2018-07-26T23:36:54.424Z,3.20
2018-07-26T23:41:47.380Z,2.70
2018-07-26T23:46:40.638Z,2.90
2018-07-26T23:51:35.141Z,4.00
2018-07-26T23:56:29.168Z,3.90
